sensor_id;sensor_type;location;lat;lon;timestamp;temperature;humidity
51815;DHT22;37874;53.158;6.766;2023-07-30T00:01:32;24.60;67.20
51815;DHT22;37874;53.158;6.766;2023-07-30T00:03:58;24.50;67.00
51815;DHT22;37874;53.158;6.766;2023-07-30T00:06:24;24.60;66.90
51815;DHT22;37874;53.158;6.766;2023-07-30T00:08:50;24.60;66.80
51815;DHT22;37874;53.158;6.766;2023-07-30T00:11:15;24.50;66.60
51815;DHT22;37874;53.158;6.766;2023-07-30T00:13:44;24.50;66.50
51815;DHT22;37874;53.158;6.766;2023-07-30T00:16:10;24.60;66.50
51815;DHT22;37874;53.158;6.766;2023-07-30T00:18:36;24.50;66.30
51815;DHT22;37874;53.158;6.766;2023-07-30T00:21:01;24.50;66.20
51815;DHT22;37874;53.158;6.766;2023-07-30T00:23:27;24.50;66.10
51815;DHT22;37874;53.158;6.766;2023-07-30T00:25:53;24.50;66.10
51815;DHT22;37874;53.158;6.766;2023-07-30T00:28:18;24.50;66.00
51815;DHT22;37874;53.158;6.766;2023-07-30T00:30:44;24.50;66.00
51815;DHT22;37874;53.158;6.766;2023-07-30T00:33:10;24.80;66.20
51815;DHT22;37874;53.158;6.766;2023-07-30T00:35:36;24.50;66.00
51815;DHT22;37874;53.158;6.766;2023-07-30T00:38:01;24.50;66.10
51815;DHT22;37874;53.158;6.766;2023-07-30T00:40:27;24.50;66.10
51815;DHT22;37874;53.158;6.766;2023-07-30T00:42:52;24.90;66.30
51815;DHT22;37874;53.158;6.766;2023-07-30T00:45:18;24.50;66.00
51815;DHT22;37874;53.158;6.766;2023-07-30T00:47:44;24.80;66.20
51815;DHT22;37874;53.158;6.766;2023-07-30T00:50:11;24.50;66.00
51815;DHT22;37874;53.158;6.766;2023-07-30T00:52:38;24.50;65.90
51815;DHT22;37874;53.158;6.766;2023-07-30T00:55:07;24.50;65.90
51815;DHT22;37874;53.158;6.766;2023-07-30T00:57:33;24.50;65.90
51815;DHT22;37874;53.158;6.766;2023-07-30T01:00:00;24.70;65.90
51815;DHT22;37874;53.158;6.766;2023-07-30T01:02:29;24.50;65.80
51815;DHT22;37874;53.158;6.766;2023-07-30T01:04:57;24.50;65.70
51815;DHT22;37874;53.158;6.766;2023-07-30T01:07:22;24.50;65.70
51815;DHT22;37874;53.158;6.766;2023-07-30T01:09:49;24.50;65.60
51815;DHT22;37874;53.158;6.766;2023-07-30T01:12:15;24.60;65.60
51815;DHT22;37874;53.158;6.766;2023-07-30T01:14:41;24.50;65.50
51815;DHT22;37874;53.158;6.766;2023-07-30T01:17:07;24.50;65.50
51815;DHT22;37874;53.158;6.766;2023-07-30T01:19:32;24.50;65.40
51815;DHT22;37874;53.158;6.766;2023-07-30T01:21:58;24.50;65.30
51815;DHT22;37874;53.158;6.766;2023-07-30T01:24:24;24.50;65.20
51815;DHT22;37874;53.158;6.766;2023-07-30T01:26:56;24.50;65.30
51815;DHT22;37874;53.158;6.766;2023-07-30T01:29:40;24.40;65.10
51815;DHT22;37874;53.158;6.766;2023-07-30T01:32:08;24.50;65.10
51815;DHT22;37874;53.158;6.766;2023-07-30T01:34:36;24.40;64.90
51815;DHT22;37874;53.158;6.766;2023-07-30T01:37:03;24.40;64.90
51815;DHT22;37874;53.158;6.766;2023-07-30T01:39:30;24.50;64.90
51815;DHT22;37874;53.158;6.766;2023-07-30T01:41:56;24.50;64.90
51815;DHT22;37874;53.158;6.766;2023-07-30T01:44:22;24.40;64.80
51815;DHT22;37874;53.158;6.766;2023-07-30T01:46:47;24.40;64.70
51815;DHT22;37874;53.158;6.766;2023-07-30T01:49:13;24.50;64.70
51815;DHT22;37874;53.158;6.766;2023-07-30T01:51:39;24.50;64.70
51815;DHT22;37874;53.158;6.766;2023-07-30T01:54:04;24.50;64.60
51815;DHT22;37874;53.158;6.766;2023-07-30T01:56:30;24.50;64.60
51815;DHT22;37874;53.158;6.766;2023-07-30T01:58:55;24.50;64.50
51815;DHT22;37874;53.158;6.766;2023-07-30T02:01:22;24.50;64.40
51815;DHT22;37874;53.158;6.766;2023-07-30T02:03:47;24.40;64.30
51815;DHT22;37874;53.158;6.766;2023-07-30T02:06:13;24.50;64.30
51815;DHT22;37874;53.158;6.766;2023-07-30T02:08:39;24.50;64.20
51815;DHT22;37874;53.158;6.766;2023-07-30T02:11:04;24.50;64.10
51815;DHT22;37874;53.158;6.766;2023-07-30T02:13:30;24.90;64.20
51815;DHT22;37874;53.158;6.766;2023-07-30T02:15:55;24.50;64.00
51815;DHT22;37874;53.158;6.766;2023-07-30T02:18:21;24.50;63.90
51815;DHT22;37874;53.158;6.766;2023-07-30T02:20:47;24.50;63.90
51815;DHT22;37874;53.158;6.766;2023-07-30T02:23:14;24.60;63.90
51815;DHT22;37874;53.158;6.766;2023-07-30T02:25:41;24.60;63.90
51815;DHT22;37874;53.158;6.766;2023-07-30T02:28:07;24.70;64.00
51815;DHT22;37874;53.158;6.766;2023-07-30T02:30:34;24.50;63.90
51815;DHT22;37874;53.158;6.766;2023-07-30T02:32:59;24.50;63.80
51815;DHT22;37874;53.158;6.766;2023-07-30T02:35:25;24.50;63.70
51815;DHT22;37874;53.158;6.766;2023-07-30T02:37:51;24.50;63.70
51815;DHT22;37874;53.158;6.766;2023-07-30T02:40:16;24.60;63.60
51815;DHT22;37874;53.158;6.766;2023-07-30T02:42:42;24.60;63.60
51815;DHT22;37874;53.158;6.766;2023-07-30T02:45:08;24.50;63.50
51815;DHT22;37874;53.158;6.766;2023-07-30T02:47:34;24.50;63.40
51815;DHT22;37874;53.158;6.766;2023-07-30T02:49:59;24.40;63.30
51815;DHT22;37874;53.158;6.766;2023-07-30T02:52:25;24.40;63.20
51815;DHT22;37874;53.158;6.766;2023-07-30T02:54:50;24.60;63.20
51815;DHT22;37874;53.158;6.766;2023-07-30T02:57:16;24.60;63.20
51815;DHT22;37874;53.158;6.766;2023-07-30T02:59:42;24.50;63.10
51815;DHT22;37874;53.158;6.766;2023-07-30T03:02:07;24.50;63.00
51815;DHT22;37874;53.158;6.766;2023-07-30T03:04:33;24.50;63.00
51815;DHT22;37874;53.158;6.766;2023-07-30T03:06:59;24.50;62.80
51815;DHT22;37874;53.158;6.766;2023-07-30T03:09:24;24.60;62.90
51815;DHT22;37874;53.158;6.766;2023-07-30T03:11:50;24.50;62.80
51815;DHT22;37874;53.158;6.766;2023-07-30T03:14:16;24.50;62.80
51815;DHT22;37874;53.158;6.766;2023-07-30T03:16:41;24.50;62.90
51815;DHT22;37874;53.158;6.766;2023-07-30T03:19:07;24.50;62.70
51815;DHT22;37874;53.158;6.766;2023-07-30T03:21:33;24.50;62.70
51815;DHT22;37874;53.158;6.766;2023-07-30T03:23:58;24.40;62.50
51815;DHT22;37874;53.158;6.766;2023-07-30T03:26:24;24.50;62.60
51815;DHT22;37874;53.158;6.766;2023-07-30T03:28:50;24.60;62.60
51815;DHT22;37874;53.158;6.766;2023-07-30T03:31:15;24.50;62.50
51815;DHT22;37874;53.158;6.766;2023-07-30T03:33:41;24.90;62.70
51815;DHT22;37874;53.158;6.766;2023-07-30T03:36:12;24.70;62.60
51815;DHT22;37874;53.158;6.766;2023-07-30T03:38:41;24.50;62.40
51815;DHT22;37874;53.158;6.766;2023-07-30T03:41:07;24.60;62.40
51815;DHT22;37874;53.158;6.766;2023-07-30T03:43:34;24.50;62.30
51815;DHT22;37874;53.158;6.766;2023-07-30T03:45:59;24.50;62.30
51815;DHT22;37874;53.158;6.766;2023-07-30T03:48:25;24.50;62.20
51815;DHT22;37874;53.158;6.766;2023-07-30T03:50:52;24.50;62.20
51815;DHT22;37874;53.158;6.766;2023-07-30T03:53:18;24.50;62.20
51815;DHT22;37874;53.158;6.766;2023-07-30T03:55:43;24.60;62.20
51815;DHT22;37874;53.158;6.766;2023-07-30T03:58:09;24.50;62.10
51815;DHT22;37874;53.158;6.766;2023-07-30T04:00:35;24.10;61.80
51815;DHT22;37874;53.158;6.766;2023-07-30T04:03:00;24.40;61.90
51815;DHT22;37874;53.158;6.766;2023-07-30T04:05:26;24.50;61.90
51815;DHT22;37874;53.158;6.766;2023-07-30T04:07:51;24.70;62.00
51815;DHT22;37874;53.158;6.766;2023-07-30T04:10:17;24.50;61.90
51815;DHT22;37874;53.158;6.766;2023-07-30T04:12:44;24.50;61.80
51815;DHT22;37874;53.158;6.766;2023-07-30T04:15:10;24.50;61.80
51815;DHT22;37874;53.158;6.766;2023-07-30T04:17:37;24.50;61.70
51815;DHT22;37874;53.158;6.766;2023-07-30T04:20:03;24.90;61.90
51815;DHT22;37874;53.158;6.766;2023-07-30T04:22:30;24.50;61.60
51815;DHT22;37874;53.158;6.766;2023-07-30T04:24:56;24.60;61.70
51815;DHT22;37874;53.158;6.766;2023-07-30T04:27:21;24.70;61.70
51815;DHT22;37874;53.158;6.766;2023-07-30T04:29:47;24.50;61.50
51815;DHT22;37874;53.158;6.766;2023-07-30T04:32:13;24.50;61.40
51815;DHT22;37874;53.158;6.766;2023-07-30T04:34:38;24.40;61.30
51815;DHT22;37874;53.158;6.766;2023-07-30T04:37:05;24.70;61.50
51815;DHT22;37874;53.158;6.766;2023-07-30T04:39:32;24.60;61.30
51815;DHT22;37874;53.158;6.766;2023-07-30T04:41:58;24.60;61.20
51815;DHT22;37874;53.158;6.766;2023-07-30T04:44:24;24.60;61.20
51815;DHT22;37874;53.158;6.766;2023-07-30T04:46:49;24.60;61.10
51815;DHT22;37874;53.158;6.766;2023-07-30T04:49:15;24.60;61.10
51815;DHT22;37874;53.158;6.766;2023-07-30T04:51:41;24.60;61.10
51815;DHT22;37874;53.158;6.766;2023-07-30T04:54:07;24.80;61.10
51815;DHT22;37874;53.158;6.766;2023-07-30T04:56:32;24.60;60.90
51815;DHT22;37874;53.158;6.766;2023-07-30T04:58:58;24.70;60.90
51815;DHT22;37874;53.158;6.766;2023-07-30T05:01:24;24.60;60.80
51815;DHT22;37874;53.158;6.766;2023-07-30T05:03:50;25.00;61.00
51815;DHT22;37874;53.158;6.766;2023-07-30T05:06:15;24.60;60.70
51815;DHT22;37874;53.158;6.766;2023-07-30T05:08:41;24.80;60.70
51815;DHT22;37874;53.158;6.766;2023-07-30T05:11:07;24.60;60.60
51815;DHT22;37874;53.158;6.766;2023-07-30T05:13:32;24.50;60.40
51815;DHT22;37874;53.158;6.766;2023-07-30T05:15:58;24.60;60.40
51815;DHT22;37874;53.158;6.766;2023-07-30T05:18:24;24.60;60.40
51815;DHT22;37874;53.158;6.766;2023-07-30T05:20:49;24.60;60.30
51815;DHT22;37874;53.158;6.766;2023-07-30T05:23:15;24.70;60.30
51815;DHT22;37874;53.158;6.766;2023-07-30T05:25:41;24.60;60.20
51815;DHT22;37874;53.158;6.766;2023-07-30T05:28:06;24.80;60.80
51815;DHT22;37874;53.158;6.766;2023-07-30T05:30:32;24.70;60.20
51815;DHT22;37874;53.158;6.766;2023-07-30T05:32:57;24.70;60.10
51815;DHT22;37874;53.158;6.766;2023-07-30T05:35:23;25.00;60.20
51815;DHT22;37874;53.158;6.766;2023-07-30T05:37:49;24.60;59.90
51815;DHT22;37874;53.158;6.766;2023-07-30T05:40:14;24.80;59.90
51815;DHT22;37874;53.158;6.766;2023-07-30T05:42:40;24.80;59.90
51815;DHT22;37874;53.158;6.766;2023-07-30T05:45:06;24.80;59.80
51815;DHT22;37874;53.158;6.766;2023-07-30T05:47:32;24.80;59.70
51815;DHT22;37874;53.158;6.766;2023-07-30T05:49:58;24.80;59.50
51815;DHT22;37874;53.158;6.766;2023-07-30T05:52:23;24.90;59.40
51815;DHT22;37874;53.158;6.766;2023-07-30T05:54:49;24.90;59.30
51815;DHT22;37874;53.158;6.766;2023-07-30T05:57:15;24.80;59.10
51815;DHT22;37874;53.158;6.766;2023-07-30T05:59:40;25.00;59.10
51815;DHT22;37874;53.158;6.766;2023-07-30T06:02:07;25.10;59.00
51815;DHT22;37874;53.158;6.766;2023-07-30T06:04:32;25.10;58.80
51815;DHT22;37874;53.158;6.766;2023-07-30T06:07:00;25.10;58.80
51815;DHT22;37874;53.158;6.766;2023-07-30T06:09:26;25.20;58.60
51815;DHT22;37874;53.158;6.766;2023-07-30T06:11:51;25.20;58.50
51815;DHT22;37874;53.158;6.766;2023-07-30T06:14:17;25.20;58.50
51815;DHT22;37874;53.158;6.766;2023-07-30T06:16:43;25.20;58.30
51815;DHT22;37874;53.158;6.766;2023-07-30T06:19:09;25.30;58.30
51815;DHT22;37874;53.158;6.766;2023-07-30T06:21:35;25.30;58.30
51815;DHT22;37874;53.158;6.766;2023-07-30T06:24:01;25.30;58.20
51815;DHT22;37874;53.158;6.766;2023-07-30T06:26:26;25.30;58.00
51815;DHT22;37874;53.158;6.766;2023-07-30T06:28:52;25.30;57.80
51815;DHT22;37874;53.158;6.766;2023-07-30T06:31:17;25.30;57.70
51815;DHT22;37874;53.158;6.766;2023-07-30T06:33:43;25.40;57.70
51815;DHT22;37874;53.158;6.766;2023-07-30T06:36:09;25.40;57.70
51815;DHT22;37874;53.158;6.766;2023-07-30T06:38:34;25.40;57.60
51815;DHT22;37874;53.158;6.766;2023-07-30T06:41:00;25.20;57.40
51815;DHT22;37874;53.158;6.766;2023-07-30T06:43:26;25.40;57.40
51815;DHT22;37874;53.158;6.766;2023-07-30T06:45:52;25.30;57.30
51815;DHT22;37874;53.158;6.766;2023-07-30T06:48:18;25.40;57.30
51815;DHT22;37874;53.158;6.766;2023-07-30T06:50:44;25.40;57.30
51815;DHT22;37874;53.158;6.766;2023-07-30T06:53:09;25.40;57.20
51815;DHT22;37874;53.158;6.766;2023-07-30T06:55:35;25.40;57.20
51815;DHT22;37874;53.158;6.766;2023-07-30T06:58:00;25.40;57.10
51815;DHT22;37874;53.158;6.766;2023-07-30T07:00:26;25.60;57.20
51815;DHT22;37874;53.158;6.766;2023-07-30T07:02:52;25.40;57.60
51815;DHT22;37874;53.158;6.766;2023-07-30T07:05:18;25.40;57.00
51815;DHT22;37874;53.158;6.766;2023-07-30T07:07:45;25.50;57.00
51815;DHT22;37874;53.158;6.766;2023-07-30T07:10:10;25.50;56.90
51815;DHT22;37874;53.158;6.766;2023-07-30T07:12:37;25.40;56.80
51815;DHT22;37874;53.158;6.766;2023-07-30T07:15:04;25.50;56.80
51815;DHT22;37874;53.158;6.766;2023-07-30T07:17:30;25.50;56.80
51815;DHT22;37874;53.158;6.766;2023-07-30T07:19:56;25.50;56.70
51815;DHT22;37874;53.158;6.766;2023-07-30T07:22:21;25.50;56.70
51815;DHT22;37874;53.158;6.766;2023-07-30T07:24:47;25.60;56.70
51815;DHT22;37874;53.158;6.766;2023-07-30T07:27:13;25.80;56.80
51815;DHT22;37874;53.158;6.766;2023-07-30T07:29:39;25.40;56.50
51815;DHT22;37874;53.158;6.766;2023-07-30T07:32:05;25.60;56.60
51815;DHT22;37874;53.158;6.766;2023-07-30T07:34:31;25.60;56.60
51815;DHT22;37874;53.158;6.766;2023-07-30T07:36:56;25.60;56.50
51815;DHT22;37874;53.158;6.766;2023-07-30T07:39:22;25.60;56.40
51815;DHT22;37874;53.158;6.766;2023-07-30T07:41:48;25.60;56.40
51815;DHT22;37874;53.158;6.766;2023-07-30T07:44:14;25.70;56.30
51815;DHT22;37874;53.158;6.766;2023-07-30T07:46:40;25.60;56.30
51815;DHT22;37874;53.158;6.766;2023-07-30T07:49:06;25.60;56.20
51815;DHT22;37874;53.158;6.766;2023-07-30T07:51:34;25.60;56.30
51815;DHT22;37874;53.158;6.766;2023-07-30T07:53:59;25.70;56.30
51815;DHT22;37874;53.158;6.766;2023-07-30T07:56:25;25.70;56.20
51815;DHT22;37874;53.158;6.766;2023-07-30T07:58:51;25.70;56.30
51815;DHT22;37874;53.158;6.766;2023-07-30T08:01:16;25.70;56.20
51815;DHT22;37874;53.158;6.766;2023-07-30T08:03:42;25.80;56.30
51815;DHT22;37874;53.158;6.766;2023-07-30T08:06:08;25.70;56.10
51815;DHT22;37874;53.158;6.766;2023-07-30T08:08:33;25.70;56.00
51815;DHT22;37874;53.158;6.766;2023-07-30T08:11:07;25.70;56.10
51815;DHT22;37874;53.158;6.766;2023-07-30T08:13:36;25.70;56.00
51815;DHT22;37874;53.158;6.766;2023-07-30T08:16:02;25.80;56.00
51815;DHT22;37874;53.158;6.766;2023-07-30T08:18:31;25.80;55.60
51815;DHT22;37874;53.158;6.766;2023-07-30T08:21:00;25.80;55.70
51815;DHT22;37874;53.158;6.766;2023-07-30T08:23:26;25.80;55.60
51815;DHT22;37874;53.158;6.766;2023-07-30T08:25:51;25.80;55.60
51815;DHT22;37874;53.158;6.766;2023-07-30T08:28:17;25.80;55.60
51815;DHT22;37874;53.158;6.766;2023-07-30T08:30:43;25.80;55.50
51815;DHT22;37874;53.158;6.766;2023-07-30T08:33:08;25.90;54.80
51815;DHT22;37874;53.158;6.766;2023-07-30T08:35:34;26.10;54.50
51815;DHT22;37874;53.158;6.766;2023-07-30T08:38:00;25.80;54.50
51815;DHT22;37874;53.158;6.766;2023-07-30T08:40:26;25.70;54.30
51815;DHT22;37874;53.158;6.766;2023-07-30T08:42:52;25.80;55.00
51815;DHT22;37874;53.158;6.766;2023-07-30T08:45:18;25.80;55.20
51815;DHT22;37874;53.158;6.766;2023-07-30T08:47:44;25.80;55.20
51815;DHT22;37874;53.158;6.766;2023-07-30T08:50:10;26.10;55.50
51815;DHT22;37874;53.158;6.766;2023-07-30T08:52:37;25.80;55.20
51815;DHT22;37874;53.158;6.766;2023-07-30T08:55:04;26.20;55.40
51815;DHT22;37874;53.158;6.766;2023-07-30T08:57:30;25.90;55.80
51815;DHT22;37874;53.158;6.766;2023-07-30T09:00:03;26.00;55.00
51815;DHT22;37874;53.158;6.766;2023-07-30T09:02:47;25.90;55.00
51815;DHT22;37874;53.158;6.766;2023-07-30T09:05:13;25.90;55.00
51815;DHT22;37874;53.158;6.766;2023-07-30T09:07:39;25.90;55.00
51815;DHT22;37874;53.158;6.766;2023-07-30T09:10:05;25.90;54.90
51815;DHT22;37874;53.158;6.766;2023-07-30T09:12:35;25.90;54.90
51815;DHT22;37874;53.158;6.766;2023-07-30T09:15:05;26.00;54.90
51815;DHT22;37874;53.158;6.766;2023-07-30T09:17:31;26.00;54.70
51815;DHT22;37874;53.158;6.766;2023-07-30T09:19:59;26.00;54.60
51815;DHT22;37874;53.158;6.766;2023-07-30T09:22:33;26.00;54.50
51815;DHT22;37874;53.158;6.766;2023-07-30T09:25:02;26.00;54.40
51815;DHT22;37874;53.158;6.766;2023-07-30T09:27:28;26.10;54.30
51815;DHT22;37874;53.158;6.766;2023-07-30T09:29:58;26.10;54.30
51815;DHT22;37874;53.158;6.766;2023-07-30T09:32:29;26.30;54.40
51815;DHT22;37874;53.158;6.766;2023-07-30T09:34:55;26.10;54.10
51815;DHT22;37874;53.158;6.766;2023-07-30T09:37:21;26.20;54.00
51815;DHT22;37874;53.158;6.766;2023-07-30T09:39:49;26.20;54.10
51815;DHT22;37874;53.158;6.766;2023-07-30T09:42:15;26.20;54.00
51815;DHT22;37874;53.158;6.766;2023-07-30T09:44:41;26.20;53.80
51815;DHT22;37874;53.158;6.766;2023-07-30T09:47:10;26.20;54.00
51815;DHT22;37874;53.158;6.766;2023-07-30T09:49:38;26.10;53.70
51815;DHT22;37874;53.158;6.766;2023-07-30T09:52:04;26.10;53.90
51815;DHT22;37874;53.158;6.766;2023-07-30T09:54:33;26.10;54.00
51815;DHT22;37874;53.158;6.766;2023-07-30T09:56:59;26.20;53.90
51815;DHT22;37874;53.158;6.766;2023-07-30T09:59:24;26.20;53.90
51815;DHT22;37874;53.158;6.766;2023-07-30T10:01:51;26.20;54.00
51815;DHT22;37874;53.158;6.766;2023-07-30T10:04:21;26.30;53.90
51815;DHT22;37874;53.158;6.766;2023-07-30T10:07:01;26.30;53.90
51815;DHT22;37874;53.158;6.766;2023-07-30T10:09:32;26.20;53.60
51815;DHT22;37874;53.158;6.766;2023-07-30T10:12:00;26.20;53.60
51815;DHT22;37874;53.158;6.766;2023-07-30T10:14:27;26.30;53.60
51815;DHT22;37874;53.158;6.766;2023-07-30T10:16:55;26.30;53.50
51815;DHT22;37874;53.158;6.766;2023-07-30T10:19:30;26.20;53.40
51815;DHT22;37874;53.158;6.766;2023-07-30T10:22:21;26.20;53.50
51815;DHT22;37874;53.158;6.766;2023-07-30T10:25:03;26.20;53.50
51815;DHT22;37874;53.158;6.766;2023-07-30T10:27:40;26.20;53.50
51815;DHT22;37874;53.158;6.766;2023-07-30T10:30:21;26.20;53.50
51815;DHT22;37874;53.158;6.766;2023-07-30T10:38:22;26.20;53.40
51815;DHT22;37874;53.158;6.766;2023-07-30T10:43:36;26.30;53.40
51815;DHT22;37874;53.158;6.766;2023-07-30T10:46:02;26.30;53.30
51815;DHT22;37874;53.158;6.766;2023-07-30T10:48:32;26.20;53.20
51815;DHT22;37874;53.158;6.766;2023-07-30T10:51:04;26.20;53.30
51815;DHT22;37874;53.158;6.766;2023-07-30T10:53:29;26.20;53.40
51815;DHT22;37874;53.158;6.766;2023-07-30T10:55:58;26.20;53.50
51815;DHT22;37874;53.158;6.766;2023-07-30T10:58:26;26.00;53.40
51815;DHT22;37874;53.158;6.766;2023-07-30T11:00:52;26.20;53.60
51815;DHT22;37874;53.158;6.766;2023-07-30T11:03:18;26.20;53.40
51815;DHT22;37874;53.158;6.766;2023-07-30T11:05:47;26.20;53.40
51815;DHT22;37874;53.158;6.766;2023-07-30T11:08:13;26.30;53.40
51815;DHT22;37874;53.158;6.766;2023-07-30T11:10:46;26.30;53.40
51815;DHT22;37874;53.158;6.766;2023-07-30T11:13:15;26.30;53.40
51815;DHT22;37874;53.158;6.766;2023-07-30T11:15:42;26.20;53.30
51815;DHT22;37874;53.158;6.766;2023-07-30T11:18:08;26.20;53.30
51815;DHT22;37874;53.158;6.766;2023-07-30T11:20:34;26.30;53.40
51815;DHT22;37874;53.158;6.766;2023-07-30T11:22:59;26.30;53.50
51815;DHT22;37874;53.158;6.766;2023-07-30T11:25:26;26.30;53.40
51815;DHT22;37874;53.158;6.766;2023-07-30T11:27:52;26.60;53.60
51815;DHT22;37874;53.158;6.766;2023-07-30T11:30:19;26.40;53.40
51815;DHT22;37874;53.158;6.766;2023-07-30T11:32:45;26.40;53.30
51815;DHT22;37874;53.158;6.766;2023-07-30T11:35:11;26.30;53.10
51815;DHT22;37874;53.158;6.766;2023-07-30T11:37:39;26.30;53.00
51815;DHT22;37874;53.158;6.766;2023-07-30T11:40:09;26.40;53.00
51815;DHT22;37874;53.158;6.766;2023-07-30T11:42:36;26.40;52.70
51815;DHT22;37874;53.158;6.766;2023-07-30T11:45:21;26.40;52.70
51815;DHT22;37874;53.158;6.766;2023-07-30T11:47:48;26.50;52.80
51815;DHT22;37874;53.158;6.766;2023-07-30T11:50:14;26.50;52.60
51815;DHT22;37874;53.158;6.766;2023-07-30T11:52:56;26.50;52.60
51815;DHT22;37874;53.158;6.766;2023-07-30T11:55:23;26.50;52.50
51815;DHT22;37874;53.158;6.766;2023-07-30T11:57:50;26.60;52.60
51815;DHT22;37874;53.158;6.766;2023-07-30T12:00:16;26.60;52.50
51815;DHT22;37874;53.158;6.766;2023-07-30T12:02:41;26.60;52.40
51815;DHT22;37874;53.158;6.766;2023-07-30T12:05:10;26.70;52.40
51815;DHT22;37874;53.158;6.766;2023-07-30T12:07:40;26.60;52.30
51815;DHT22;37874;53.158;6.766;2023-07-30T12:10:11;26.70;52.30
51815;DHT22;37874;53.158;6.766;2023-07-30T12:12:43;26.70;52.00
51815;DHT22;37874;53.158;6.766;2023-07-30T12:15:12;26.80;51.70
51815;DHT22;37874;53.158;6.766;2023-07-30T12:17:38;27.00;51.90
51815;DHT22;37874;53.158;6.766;2023-07-30T12:20:05;26.60;51.20
51815;DHT22;37874;53.158;6.766;2023-07-30T12:22:33;27.00;51.50
51815;DHT22;37874;53.158;6.766;2023-07-30T12:25:04;27.00;51.40
51815;DHT22;37874;53.158;6.766;2023-07-30T12:27:30;27.00;51.10
51815;DHT22;37874;53.158;6.766;2023-07-30T12:29:55;27.10;51.20
51815;DHT22;37874;53.158;6.766;2023-07-30T12:32:21;26.80;51.00
51815;DHT22;37874;53.158;6.766;2023-07-30T12:34:49;26.90;51.10
51815;DHT22;37874;53.158;6.766;2023-07-30T12:37:15;26.90;51.20
51815;DHT22;37874;53.158;6.766;2023-07-30T12:39:40;27.00;51.40
51815;DHT22;37874;53.158;6.766;2023-07-30T12:42:06;26.90;51.50
51815;DHT22;37874;53.158;6.766;2023-07-30T12:44:32;26.80;51.60
51815;DHT22;37874;53.158;6.766;2023-07-30T12:46:59;26.80;51.70
51815;DHT22;37874;53.158;6.766;2023-07-30T12:49:28;26.80;51.70
51815;DHT22;37874;53.158;6.766;2023-07-30T12:51:53;27.10;51.70
51815;DHT22;37874;53.158;6.766;2023-07-30T12:54:20;27.20;51.00
51815;DHT22;37874;53.158;6.766;2023-07-30T12:56:49;27.20;50.90
51815;DHT22;37874;53.158;6.766;2023-07-30T12:59:14;27.20;50.90
51815;DHT22;37874;53.158;6.766;2023-07-30T13:01:43;27.30;50.70
51815;DHT22;37874;53.158;6.766;2023-07-30T13:04:11;27.50;50.20
51815;DHT22;37874;53.158;6.766;2023-07-30T13:06:38;27.60;50.00
51815;DHT22;37874;53.158;6.766;2023-07-30T13:09:03;27.60;49.80
51815;DHT22;37874;53.158;6.766;2023-07-30T13:11:29;27.60;50.00
51815;DHT22;37874;53.158;6.766;2023-07-30T15:15:32;27.60;49.60
51815;DHT22;37874;53.158;6.766;2023-07-30T15:17:58;27.50;50.00
51815;DHT22;37874;53.158;6.766;2023-07-30T15:20:24;27.60;50.40
51815;DHT22;37874;53.158;6.766;2023-07-30T15:22:49;27.40;50.40
51815;DHT22;37874;53.158;6.766;2023-07-30T15:25:16;27.40;50.60
51815;DHT22;37874;53.158;6.766;2023-07-30T15:27:42;27.50;50.50
51815;DHT22;37874;53.158;6.766;2023-07-30T15:30:08;27.60;50.50
51815;DHT22;37874;53.158;6.766;2023-07-30T15:32:41;27.80;50.30
51815;DHT22;37874;53.158;6.766;2023-07-30T15:35:07;27.80;49.80
51815;DHT22;37874;53.158;6.766;2023-07-30T15:37:32;27.80;49.50
51815;DHT22;37874;53.158;6.766;2023-07-30T15:39:58;27.90;49.70
51815;DHT22;37874;53.158;6.766;2023-07-30T15:42:24;28.00;49.90
51815;DHT22;37874;53.158;6.766;2023-07-30T15:44:49;28.30;49.40
51815;DHT22;37874;53.158;6.766;2023-07-30T15:47:15;28.50;48.80
51815;DHT22;37874;53.158;6.766;2023-07-30T15:49:40;28.70;48.20
51815;DHT22;37874;53.158;6.766;2023-07-30T15:52:06;29.00;47.80
51815;DHT22;37874;53.158;6.766;2023-07-30T15:54:37;29.20;47.40
51815;DHT22;37874;53.158;6.766;2023-07-30T15:57:03;29.20;47.20
51815;DHT22;37874;53.158;6.766;2023-07-30T15:59:31;29.20;47.10
51815;DHT22;37874;53.158;6.766;2023-07-30T16:01:57;29.20;47.00
51815;DHT22;37874;53.158;6.766;2023-07-30T16:04:24;29.30;46.90
51815;DHT22;37874;53.158;6.766;2023-07-30T16:06:49;29.30;46.70
51815;DHT22;37874;53.158;6.766;2023-07-30T16:09:15;29.40;47.00
51815;DHT22;37874;53.158;6.766;2023-07-30T16:11:41;29.30;46.70
51815;DHT22;37874;53.158;6.766;2023-07-30T16:14:07;29.20;46.70
51815;DHT22;37874;53.158;6.766;2023-07-30T16:16:32;29.00;46.90
51815;DHT22;37874;53.158;6.766;2023-07-30T16:18:58;28.80;47.20
51815;DHT22;37874;53.158;6.766;2023-07-30T16:21:26;28.70;47.70
51815;DHT22;37874;53.158;6.766;2023-07-30T16:23:52;28.50;47.90
51815;DHT22;37874;53.158;6.766;2023-07-30T16:26:17;28.30;48.20
51815;DHT22;37874;53.158;6.766;2023-07-30T16:28:43;28.20;48.40
51815;DHT22;37874;53.158;6.766;2023-07-30T16:31:09;28.00;48.60
51815;DHT22;37874;53.158;6.766;2023-07-30T16:33:35;28.00;48.80
51815;DHT22;37874;53.158;6.766;2023-07-30T16:36:01;27.90;49.10
51815;DHT22;37874;53.158;6.766;2023-07-30T16:38:30;27.80;49.10
51815;DHT22;37874;53.158;6.766;2023-07-30T16:40:56;27.70;52.40
51815;DHT22;37874;53.158;6.766;2023-07-30T16:43:22;27.60;50.70
51815;DHT22;37874;53.158;6.766;2023-07-30T16:45:47;27.40;50.40
51815;DHT22;37874;53.158;6.766;2023-07-30T16:48:13;27.40;50.40
51815;DHT22;37874;53.158;6.766;2023-07-30T16:50:43;27.40;50.40
51815;DHT22;37874;53.158;6.766;2023-07-30T16:53:09;27.10;50.30
51815;DHT22;37874;53.158;6.766;2023-07-30T16:55:35;27.30;50.50
51815;DHT22;37874;53.158;6.766;2023-07-30T16:58:00;27.40;50.40
51815;DHT22;37874;53.158;6.766;2023-07-30T17:00:27;27.40;50.10
51815;DHT22;37874;53.158;6.766;2023-07-30T17:02:54;27.40;50.20
51815;DHT22;37874;53.158;6.766;2023-07-30T17:05:19;27.40;50.10
51815;DHT22;37874;53.158;6.766;2023-07-30T17:07:45;27.50;50.20
51815;DHT22;37874;53.158;6.766;2023-07-30T17:10:11;27.50;50.10
51815;DHT22;37874;53.158;6.766;2023-07-30T17:12:36;27.60;50.10
51815;DHT22;37874;53.158;6.766;2023-07-30T17:15:09;27.50;50.10
51815;DHT22;37874;53.158;6.766;2023-07-30T17:17:35;27.50;50.00
51815;DHT22;37874;53.158;6.766;2023-07-30T17:20:01;27.50;50.10
51815;DHT22;37874;53.158;6.766;2023-07-30T17:22:28;27.50;50.10
51815;DHT22;37874;53.158;6.766;2023-07-30T17:24:56;27.50;50.10
51815;DHT22;37874;53.158;6.766;2023-07-30T17:27:23;27.40;50.10
51815;DHT22;37874;53.158;6.766;2023-07-30T17:29:48;27.40;50.20
51815;DHT22;37874;53.158;6.766;2023-07-30T17:32:14;27.30;50.20
51815;DHT22;37874;53.158;6.766;2023-07-30T17:34:43;27.30;50.10
51815;DHT22;37874;53.158;6.766;2023-07-30T17:37:08;27.30;50.10